Annandale On Hudson, NY (12504)

9:46 AM EDT on March 26, 2017 (GMT -0400)
Saugerties | | Change Station
Active Advisory: Special Statement

Elev 136 ft 42.04 °N, 73.95 °W | Updated 1 minute ago

Rain
Rain
32.9 °F
Feels Like 33 °F
N
0.0
Wind Variable Wind from ENE
Gusts 1.0 mph

Today
High -- | Low -- °F
--% Chance of Precip.
Yesterday
High -- | Low -- °F
Precip. -- in
Pressure 30.48 in
Visibility 9.0 miles
Clouds Few 400 ft
Overcast 4300 ft
Windchill 33 °F
Dew Point 28 °F
Humidity 82%
Rainfall 0.02 in
Snow Depth Not available.
6:48 AM 7:14 PM
Waning Crescent, 3% visible
SPECI KPOU 261329Z 36004KT 9SM FEW004 OVC043 00/M01 A3048 RMK AO2 UPE03 P0000 T00001006
Pressure 30.48 in
Visibility 9.0 miles
Clouds Few 400 ft
Overcast 4300 ft
Windchill 33 °F
Dew Point 28 °F
Humidity 82%
Rainfall 0.02 in
Snow Depth Not available.
6:48 AM 7:14 PM
Waning Crescent, 3% visible
SPECI KPOU 261329Z 36004KT 9SM FEW004 OVC043 00/M01 A3048 RMK AO2 UPE03 P0000 T00001006

Get Your Daily Forecast Email!

Thanks for signing up!

Be on the lookout for a verification email in your inbox.

You'll start receiving severe weather alerts in your inbox..

×

10-Day Weather Forecast

Almanac

Astronomy

Mar. 26, 2017 Rise Set
Actual Time
Civil Twilight
Nautical Twilight
Astronomical Twilight
Moon
Length of Visible Light
Length of Day
Tomorrow will be .
, % of the Moon is Illuminated

Today's Extremes

State Highs State Lows

Community

WunderPhotos

Upload Photos

1,962,540 photos uploaded!

WunderBlog® & News

Nearby

Air Quality

  Air Quality AQ Index Pollutant
Not available.

Snow Depth

Station Depth Elevation

Earthquake Activity

City Distance Mag. Time & Date
Minimum magnitude displayed is 2.5.

Earthquake Activity

City Distance Mag. Time & Date
Minimum magnitude displayed is 2.5.

Coastal Water Temperatures

Place Temperature

Stations

Nearby Weather Stations

Station Location Temp. Windchill Dew Point Humidity Wind Precip. Elev Updated Type
                   

Watches & Warnings

Special Statement
Issued: 8:12 AM EDT Mar. 26, 2017 – National Weather Service

... Light freezing rain or drizzle possible this morning...

Pockets of light freezing rain or drizzle will be possible this
morning with temperatures in the upper 20s and lower 30s. Exercise
caution if traveling and allow extra time to get to your
destination.



812 am EDT sun Mar 26 2017

... Light freezing rain or drizzle possible this morning...

Pockets of light freezing rain or drizzle will be possible this
morning with temperatures in the upper 20s and lower 30s. Exercise
caution if traveling and allow extra time to get to your
destination.